sensor_id;sensor_type;location;lat;lon;timestamp;P1;durP1;ratioP1;P2;durP2;ratioP2
20976;SDS011;10647;51.016;3.720;2023-04-24T00:02:21;35.90;;;17.23;;
20976;SDS011;10647;51.016;3.720;2023-04-24T00:04:49;33.40;;;16.60;;
20976;SDS011;10647;51.016;3.720;2023-04-24T00:07:17;36.30;;;16.67;;
20976;SDS011;10647;51.016;3.720;2023-04-24T00:09:45;33.07;;;15.90;;
20976;SDS011;10647;51.016;3.720;2023-04-24T00:12:13;29.67;;;16.10;;
20976;SDS011;10647;51.016;3.720;2023-04-24T00:14:40;30.10;;;15.60;;
20976;SDS011;10647;51.016;3.720;2023-04-24T00:17:08;29.33;;;16.17;;
20976;SDS011;10647;51.016;3.720;2023-04-24T00:19:35;30.37;;;15.83;;
20976;SDS011;10647;51.016;3.720;2023-04-24T00:22:03;25.87;;;14.67;;
20976;SDS011;10647;51.016;3.720;2023-04-24T00:24:33;26.83;;;14.37;;
20976;SDS011;10647;51.016;3.720;2023-04-24T00:27:00;25.47;;;14.07;;
20976;SDS011;10647;51.016;3.720;2023-04-24T00:29:28;22.47;;;13.50;;
20976;SDS011;10647;51.016;3.720;2023-04-24T00:31:55;23.07;;;13.77;;
20976;SDS011;10647;51.016;3.720;2023-04-24T00:34:23;21.13;;;11.93;;
20976;SDS011;10647;51.016;3.720;2023-04-24T00:36:50;20.83;;;11.97;;
20976;SDS011;10647;51.016;3.720;2023-04-24T00:39:18;20.77;;;11.77;;
20976;SDS011;10647;51.016;3.720;2023-04-24T00:41:47;20.20;;;12.40;;
20976;SDS011;10647;51.016;3.720;2023-04-24T00:44:16;24.03;;;12.87;;
20976;SDS011;10647;51.016;3.720;2023-04-24T00:46:44;24.10;;;12.63;;
20976;SDS011;10647;51.016;3.720;2023-04-24T00:49:14;23.27;;;12.83;;
20976;SDS011;10647;51.016;3.720;2023-04-24T00:51:42;21.23;;;12.83;;
20976;SDS011;10647;51.016;3.720;2023-04-24T00:54:11;23.17;;;14.10;;
20976;SDS011;10647;51.016;3.720;2023-04-24T00:57:05;27.03;;;13.87;;
20976;SDS011;10647;51.016;3.720;2023-04-24T01:02:21;16.47;;;11.70;;
20976;SDS011;10647;51.016;3.720;2023-04-24T01:04:52;17.80;;;11.13;;
20976;SDS011;10647;51.016;3.720;2023-04-24T01:07:20;16.43;;;11.10;;
20976;SDS011;10647;51.016;3.720;2023-04-24T01:09:48;14.60;;;9.67;;
20976;SDS011;10647;51.016;3.720;2023-04-24T01:12:16;16.80;;;10.43;;
20976;SDS011;10647;51.016;3.720;2023-04-24T01:14:45;17.40;;;9.70;;
20976;SDS011;10647;51.016;3.720;2023-04-24T01:17:12;16.07;;;10.07;;
20976;SDS011;10647;51.016;3.720;2023-04-24T01:19:41;14.60;;;8.97;;
20976;SDS011;10647;51.016;3.720;2023-04-24T01:22:11;14.93;;;9.03;;
20976;SDS011;10647;51.016;3.720;2023-04-24T01:24:40;15.47;;;9.63;;
20976;SDS011;10647;51.016;3.720;2023-04-24T01:27:09;11.97;;;8.97;;
20976;SDS011;10647;51.016;3.720;2023-04-24T01:29:39;14.37;;;9.60;;
20976;SDS011;10647;51.016;3.720;2023-04-24T01:32:07;13.30;;;9.40;;
20976;SDS011;10647;51.016;3.720;2023-04-24T01:34:35;15.73;;;10.53;;
20976;SDS011;10647;51.016;3.720;2023-04-24T01:37:03;17.60;;;10.30;;
20976;SDS011;10647;51.016;3.720;2023-04-24T01:39:31;18.70;;;10.37;;
20976;SDS011;10647;51.016;3.720;2023-04-24T01:41:59;16.03;;;10.63;;
20976;SDS011;10647;51.016;3.720;2023-04-24T01:44:29;17.37;;;11.63;;
20976;SDS011;10647;51.016;3.720;2023-04-24T01:46:58;20.30;;;13.03;;
20976;SDS011;10647;51.016;3.720;2023-04-24T01:49:26;20.90;;;12.27;;
20976;SDS011;10647;51.016;3.720;2023-04-24T01:51:54;18.53;;;12.77;;
20976;SDS011;10647;51.016;3.720;2023-04-24T01:54:22;17.73;;;12.70;;
20976;SDS011;10647;51.016;3.720;2023-04-24T01:56:50;18.93;;;12.40;;
20976;SDS011;10647;51.016;3.720;2023-04-24T01:59:18;18.80;;;12.37;;
20976;SDS011;10647;51.016;3.720;2023-04-24T02:01:48;20.90;;;13.20;;
20976;SDS011;10647;51.016;3.720;2023-04-24T02:04:15;22.30;;;13.60;;
20976;SDS011;10647;51.016;3.720;2023-04-24T02:06:43;27.00;;;14.70;;
20976;SDS011;10647;51.016;3.720;2023-04-24T02:09:11;23.87;;;14.00;;
20976;SDS011;10647;51.016;3.720;2023-04-24T02:11:38;25.17;;;13.53;;
20976;SDS011;10647;51.016;3.720;2023-04-24T02:14:07;27.63;;;16.77;;
20976;SDS011;10647;51.016;3.720;2023-04-24T02:16:34;32.63;;;17.93;;
20976;SDS011;10647;51.016;3.720;2023-04-24T02:19:02;33.37;;;17.43;;
20976;SDS011;10647;51.016;3.720;2023-04-24T02:21:30;35.00;;;18.87;;
20976;SDS011;10647;51.016;3.720;2023-04-24T02:24:04;37.50;;;18.23;;
20976;SDS011;10647;51.016;3.720;2023-04-24T02:26:37;21.83;;;8.90;;
20976;SDS011;10647;51.016;3.720;2023-04-24T02:29:06;42.63;;;17.97;;
20976;SDS011;10647;51.016;3.720;2023-04-24T02:31:33;37.27;;;18.93;;
20976;SDS011;10647;51.016;3.720;2023-04-24T02:34:01;33.37;;;16.43;;
20976;SDS011;10647;51.016;3.720;2023-04-24T02:36:28;41.77;;;17.30;;
20976;SDS011;10647;51.016;3.720;2023-04-24T02:38:56;38.60;;;19.83;;
20976;SDS011;10647;51.016;3.720;2023-04-24T02:41:23;38.80;;;18.17;;
20976;SDS011;10647;51.016;3.720;2023-04-24T02:43:53;37.20;;;17.53;;
20976;SDS011;10647;51.016;3.720;2023-04-24T02:46:22;30.23;;;16.47;;
20976;SDS011;10647;51.016;3.720;2023-04-24T02:48:50;36.63;;;14.47;;
20976;SDS011;10647;51.016;3.720;2023-04-24T02:51:17;31.77;;;15.63;;
20976;SDS011;10647;51.016;3.720;2023-04-24T02:53:45;32.17;;;14.73;;
20976;SDS011;10647;51.016;3.720;2023-04-24T02:56:12;32.20;;;14.97;;
20976;SDS011;10647;51.016;3.720;2023-04-24T02:58:41;33.80;;;14.73;;
20976;SDS011;10647;51.016;3.720;2023-04-24T03:01:09;28.50;;;11.17;;
20976;SDS011;10647;51.016;3.720;2023-04-24T03:03:37;19.00;;;7.97;;
20976;SDS011;10647;51.016;3.720;2023-04-24T03:06:05;23.03;;;8.77;;
20976;SDS011;10647;51.016;3.720;2023-04-24T03:08:33;20.13;;;8.70;;
20976;SDS011;10647;51.016;3.720;2023-04-24T03:11:01;21.77;;;8.33;;
20976;SDS011;10647;51.016;3.720;2023-04-24T03:13:29;22.00;;;7.93;;
20976;SDS011;10647;51.016;3.720;2023-04-24T03:15:57;21.10;;;8.87;;
20976;SDS011;10647;51.016;3.720;2023-04-24T03:18:25;13.40;;;4.20;;
20976;SDS011;10647;51.016;3.720;2023-04-24T03:20:52;21.77;;;8.60;;
20976;SDS011;10647;51.016;3.720;2023-04-24T03:23:20;20.23;;;8.70;;
20976;SDS011;10647;51.016;3.720;2023-04-24T03:25:49;21.70;;;8.13;;
20976;SDS011;10647;51.016;3.720;2023-04-24T03:28:17;19.07;;;7.77;;
20976;SDS011;10647;51.016;3.720;2023-04-24T03:30:45;23.43;;;8.13;;
20976;SDS011;10647;51.016;3.720;2023-04-24T03:33:13;25.40;;;9.20;;
20976;SDS011;10647;51.016;3.720;2023-04-24T03:35:40;27.80;;;11.17;;
20976;SDS011;10647;51.016;3.720;2023-04-24T03:38:08;31.57;;;12.53;;
20976;SDS011;10647;51.016;3.720;2023-04-24T03:40:36;32.53;;;12.90;;
20976;SDS011;10647;51.016;3.720;2023-04-24T03:43:03;34.73;;;13.10;;
20976;SDS011;10647;51.016;3.720;2023-04-24T03:45:31;20.30;;;7.17;;
20976;SDS011;10647;51.016;3.720;2023-04-24T03:47:58;39.53;;;14.07;;
20976;SDS011;10647;51.016;3.720;2023-04-24T03:50:28;37.77;;;16.17;;
20976;SDS011;10647;51.016;3.720;2023-04-24T03:52:55;35.73;;;11.83;;
20976;SDS011;10647;51.016;3.720;2023-04-24T03:55:22;39.40;;;18.30;;
20976;SDS011;10647;51.016;3.720;2023-04-24T03:57:50;46.23;;;17.37;;
20976;SDS011;10647;51.016;3.720;2023-04-24T04:00:17;14.27;;;4.90;;
20976;SDS011;10647;51.016;3.720;2023-04-24T04:02:46;48.77;;;17.70;;
20976;SDS011;10647;51.016;3.720;2023-04-24T04:05:15;46.07;;;15.37;;
20976;SDS011;10647;51.016;3.720;2023-04-24T04:07:43;45.53;;;17.93;;
20976;SDS011;10647;51.016;3.720;2023-04-24T04:10:11;54.07;;;17.87;;
20976;SDS011;10647;51.016;3.720;2023-04-24T04:12:39;44.00;;;13.93;;
20976;SDS011;10647;51.016;3.720;2023-04-24T04:15:06;12.37;;;4.70;;
20976;SDS011;10647;51.016;3.720;2023-04-24T04:17:35;63.40;;;17.97;;
20976;SDS011;10647;51.016;3.720;2023-04-24T04:20:04;46.27;;;16.83;;
20976;SDS011;10647;51.016;3.720;2023-04-24T04:22:41;54.53;;;18.87;;
20976;SDS011;10647;51.016;3.720;2023-04-24T04:25:08;58.27;;;18.77;;
20976;SDS011;10647;51.016;3.720;2023-04-24T04:27:37;51.10;;;19.00;;
20976;SDS011;10647;51.016;3.720;2023-04-24T04:30:05;48.10;;;14.97;;
20976;SDS011;10647;51.016;3.720;2023-04-24T04:32:34;55.27;;;18.97;;
20976;SDS011;10647;51.016;3.720;2023-04-24T04:35:01;55.97;;;18.93;;
20976;SDS011;10647;51.016;3.720;2023-04-24T04:37:30;45.67;;;18.30;;
20976;SDS011;10647;51.016;3.720;2023-04-24T04:40:01;49.30;;;16.83;;
20976;SDS011;10647;51.016;3.720;2023-04-24T04:42:31;53.60;;;17.87;;
20976;SDS011;10647;51.016;3.720;2023-04-24T04:45:04;39.47;;;14.00;;
20976;SDS011;10647;51.016;3.720;2023-04-24T04:47:31;52.20;;;17.17;;
20976;SDS011;10647;51.016;3.720;2023-04-24T04:49:59;46.57;;;17.57;;
20976;SDS011;10647;51.016;3.720;2023-04-24T04:52:29;45.13;;;14.83;;
20976;SDS011;10647;51.016;3.720;2023-04-24T04:54:57;50.10;;;15.87;;
20976;SDS011;10647;51.016;3.720;2023-04-24T04:57:24;44.77;;;14.93;;
20976;SDS011;10647;51.016;3.720;2023-04-24T04:59:52;48.13;;;17.13;;
20976;SDS011;10647;51.016;3.720;2023-04-24T05:02:20;45.97;;;17.13;;
20976;SDS011;10647;51.016;3.720;2023-04-24T05:04:48;43.93;;;15.87;;
20976;SDS011;10647;51.016;3.720;2023-04-24T05:07:15;43.27;;;16.47;;
20976;SDS011;10647;51.016;3.720;2023-04-24T05:09:44;45.57;;;17.03;;
20976;SDS011;10647;51.016;3.720;2023-04-24T05:12:11;52.53;;;17.90;;
20976;SDS011;10647;51.016;3.720;2023-04-24T05:14:40;50.30;;;18.23;;
20976;SDS011;10647;51.016;3.720;2023-04-24T05:17:07;46.90;;;16.77;;
20976;SDS011;10647;51.016;3.720;2023-04-24T05:19:35;49.27;;;18.23;;
20976;SDS011;10647;51.016;3.720;2023-04-24T05:22:04;42.93;;;16.60;;
20976;SDS011;10647;51.016;3.720;2023-04-24T05:24:33;50.10;;;17.00;;
20976;SDS011;10647;51.016;3.720;2023-04-24T05:27:24;51.27;;;17.53;;
20976;SDS011;10647;51.016;3.720;2023-04-24T05:29:54;50.70;;;17.30;;
20976;SDS011;10647;51.016;3.720;2023-04-24T05:32:22;45.23;;;17.80;;
20976;SDS011;10647;51.016;3.720;2023-04-24T05:37:21;45.97;;;16.97;;
20976;SDS011;10647;51.016;3.720;2023-04-24T05:39:48;44.43;;;17.20;;
20976;SDS011;10647;51.016;3.720;2023-04-24T05:42:16;57.43;;;19.57;;
20976;SDS011;10647;51.016;3.720;2023-04-24T05:44:44;50.93;;;18.60;;
20976;SDS011;10647;51.016;3.720;2023-04-24T05:47:11;50.40;;;19.60;;
20976;SDS011;10647;51.016;3.720;2023-04-24T05:49:39;53.93;;;21.33;;
20976;SDS011;10647;51.016;3.720;2023-04-24T05:52:06;61.00;;;21.70;;
20976;SDS011;10647;51.016;3.720;2023-04-24T05:54:35;56.90;;;22.03;;
20976;SDS011;10647;51.016;3.720;2023-04-24T05:57:03;63.63;;;20.90;;
20976;SDS011;10647;51.016;3.720;2023-04-24T05:59:33;61.10;;;23.80;;
20976;SDS011;10647;51.016;3.720;2023-04-24T06:02:05;62.07;;;21.47;;
20976;SDS011;10647;51.016;3.720;2023-04-24T06:04:35;60.40;;;20.87;;
20976;SDS011;10647;51.016;3.720;2023-04-24T06:07:03;64.20;;;21.27;;
20976;SDS011;10647;51.016;3.720;2023-04-24T06:09:31;60.40;;;22.37;;
20976;SDS011;10647;51.016;3.720;2023-04-24T06:11:59;67.50;;;21.40;;
20976;SDS011;10647;51.016;3.720;2023-04-24T06:14:27;59.67;;;20.13;;
20976;SDS011;10647;51.016;3.720;2023-04-24T06:16:54;68.30;;;20.00;;
20976;SDS011;10647;51.016;3.720;2023-04-24T06:19:22;65.57;;;19.77;;
20976;SDS011;10647;51.016;3.720;2023-04-24T06:21:49;65.83;;;19.87;;
20976;SDS011;10647;51.016;3.720;2023-04-24T06:24:17;62.40;;;22.73;;
20976;SDS011;10647;51.016;3.720;2023-04-24T06:26:44;59.90;;;21.40;;
20976;SDS011;10647;51.016;3.720;2023-04-24T06:29:12;68.10;;;22.33;;
20976;SDS011;10647;51.016;3.720;2023-04-24T06:31:40;59.37;;;20.70;;
20976;SDS011;10647;51.016;3.720;2023-04-24T06:34:07;65.03;;;19.50;;
20976;SDS011;10647;51.016;3.720;2023-04-24T06:36:36;65.50;;;20.33;;
20976;SDS011;10647;51.016;3.720;2023-04-24T06:39:04;51.47;;;13.43;;
20976;SDS011;10647;51.016;3.720;2023-04-24T06:41:32;47.20;;;18.23;;
20976;SDS011;10647;51.016;3.720;2023-04-24T06:44:00;39.93;;;13.30;;
20976;SDS011;10647;51.016;3.720;2023-04-24T06:46:28;57.20;;;18.33;;
20976;SDS011;10647;51.016;3.720;2023-04-24T06:48:56;74.43;;;19.70;;
20976;SDS011;10647;51.016;3.720;2023-04-24T06:51:23;59.03;;;19.03;;
20976;SDS011;10647;51.016;3.720;2023-04-24T06:53:53;60.33;;;19.33;;
20976;SDS011;10647;51.016;3.720;2023-04-24T06:56:22;56.23;;;17.93;;
20976;SDS011;10647;51.016;3.720;2023-04-24T06:58:50;51.67;;;16.50;;
20976;SDS011;10647;51.016;3.720;2023-04-24T07:01:18;55.90;;;16.50;;
20976;SDS011;10647;51.016;3.720;2023-04-24T07:06:32;45.07;;;15.70;;
20976;SDS011;10647;51.016;3.720;2023-04-24T07:09:00;42.97;;;15.33;;
20976;SDS011;10647;51.016;3.720;2023-04-24T07:11:29;42.83;;;16.37;;
20976;SDS011;10647;51.016;3.720;2023-04-24T07:13:57;39.20;;;14.87;;
20976;SDS011;10647;51.016;3.720;2023-04-24T07:16:24;43.73;;;15.77;;
20976;SDS011;10647;51.016;3.720;2023-04-24T07:18:52;46.93;;;14.90;;
20976;SDS011;10647;51.016;3.720;2023-04-24T07:21:20;34.97;;;13.37;;
20976;SDS011;10647;51.016;3.720;2023-04-24T07:23:47;36.57;;;11.63;;
20976;SDS011;10647;51.016;3.720;2023-04-24T07:26:15;44.03;;;14.93;;
20976;SDS011;10647;51.016;3.720;2023-04-24T07:28:44;49.53;;;14.93;;
20976;SDS011;10647;51.016;3.720;2023-04-24T07:31:12;41.47;;;13.40;;
20976;SDS011;10647;51.016;3.720;2023-04-24T07:33:40;39.20;;;13.87;;
20976;SDS011;10647;51.016;3.720;2023-04-24T07:36:07;33.50;;;13.90;;
20976;SDS011;10647;51.016;3.720;2023-04-24T07:38:37;44.97;;;11.17;;
20976;SDS011;10647;51.016;3.720;2023-04-24T07:41:04;43.90;;;13.43;;
20976;SDS011;10647;51.016;3.720;2023-04-24T07:43:32;20.70;;;6.33;;
20976;SDS011;10647;51.016;3.720;2023-04-24T07:45:59;40.37;;;13.23;;
20976;SDS011;10647;51.016;3.720;2023-04-24T07:48:27;39.23;;;13.00;;
20976;SDS011;10647;51.016;3.720;2023-04-24T07:50:54;37.87;;;12.57;;
20976;SDS011;10647;51.016;3.720;2023-04-24T07:53:22;32.77;;;10.27;;
20976;SDS011;10647;51.016;3.720;2023-04-24T07:55:49;31.87;;;11.67;;
20976;SDS011;10647;51.016;3.720;2023-04-24T07:58:17;22.67;;;6.23;;
20976;SDS011;10647;51.016;3.720;2023-04-24T08:00:45;36.77;;;11.67;;
20976;SDS011;10647;51.016;3.720;2023-04-24T08:03:12;30.43;;;10.90;;
20976;SDS011;10647;51.016;3.720;2023-04-24T08:05:40;24.07;;;7.73;;
20976;SDS011;10647;51.016;3.720;2023-04-24T08:08:08;25.03;;;8.03;;
20976;SDS011;10647;51.016;3.720;2023-04-24T08:10:37;18.30;;;5.63;;
20976;SDS011;10647;51.016;3.720;2023-04-24T08:15:53;25.63;;;8.70;;
20976;SDS011;10647;51.016;3.720;2023-04-24T08:18:23;25.23;;;6.90;;
20976;SDS011;10647;51.016;3.720;2023-04-24T08:20:50;14.57;;;4.47;;
20976;SDS011;10647;51.016;3.720;2023-04-24T08:23:19;19.43;;;4.80;;
20976;SDS011;10647;51.016;3.720;2023-04-24T08:25:52;16.60;;;5.20;;
20976;SDS011;10647;51.016;3.720;2023-04-24T08:28:29;15.70;;;5.37;;
20976;SDS011;10647;51.016;3.720;2023-04-24T08:30:56;18.10;;;6.63;;
20976;SDS011;10647;51.016;3.720;2023-04-24T08:33:26;20.47;;;8.10;;
20976;SDS011;10647;51.016;3.720;2023-04-24T08:35:55;8.03;;;3.50;;
20976;SDS011;10647;51.016;3.720;2023-04-24T08:38:23;14.57;;;4.23;;
20976;SDS011;10647;51.016;3.720;2023-04-24T08:40:50;17.90;;;6.07;;
20976;SDS011;10647;51.016;3.720;2023-04-24T08:43:19;16.40;;;6.83;;
20976;SDS011;10647;51.016;3.720;2023-04-24T08:45:48;18.63;;;6.97;;
20976;SDS011;10647;51.016;3.720;2023-04-24T08:48:19;20.37;;;7.00;;
20976;SDS011;10647;51.016;3.720;2023-04-24T08:53:30;11.73;;;4.30;;
20976;SDS011;10647;51.016;3.720;2023-04-24T08:56:00;19.00;;;7.03;;
20976;SDS011;10647;51.016;3.720;2023-04-24T09:00:59;15.57;;;6.17;;
20976;SDS011;10647;51.016;3.720;2023-04-24T09:03:28;13.67;;;6.00;;
20976;SDS011;10647;51.016;3.720;2023-04-24T09:05:57;15.57;;;5.83;;
20976;SDS011;10647;51.016;3.720;2023-04-24T09:10:58;10.43;;;5.27;;
20976;SDS011;10647;51.016;3.720;2023-04-24T09:13:30;13.17;;;5.57;;
20976;SDS011;10647;51.016;3.720;2023-04-24T09:16:11;14.67;;;5.60;;
20976;SDS011;10647;51.016;3.720;2023-04-24T09:19:00;17.03;;;5.80;;
20976;SDS011;10647;51.016;3.720;2023-04-24T09:21:36;11.77;;;4.93;;
20976;SDS011;10647;51.016;3.720;2023-04-24T09:24:02;14.83;;;5.10;;
20976;SDS011;10647;51.016;3.720;2023-04-24T09:26:32;10.50;;;3.27;;
20976;SDS011;10647;51.016;3.720;2023-04-24T09:29:01;10.77;;;4.70;;
20976;SDS011;10647;51.016;3.720;2023-04-24T09:31:30;10.80;;;4.57;;
20976;SDS011;10647;51.016;3.720;2023-04-24T09:33:59;11.00;;;4.30;;
20976;SDS011;10647;51.016;3.720;2023-04-24T09:36:30;13.23;;;4.50;;
20976;SDS011;10647;51.016;3.720;2023-04-24T09:39:03;11.20;;;4.40;;
20976;SDS011;10647;51.016;3.720;2023-04-24T09:41:33;11.40;;;4.33;;
20976;SDS011;10647;51.016;3.720;2023-04-24T09:44:16;10.30;;;4.10;;
20976;SDS011;10647;51.016;3.720;2023-04-24T09:46:41;10.67;;;4.33;;
20976;SDS011;10647;51.016;3.720;2023-04-24T09:49:13;12.03;;;4.20;;
20976;SDS011;10647;51.016;3.720;2023-04-24T09:51:42;7.43;;;3.63;;
20976;SDS011;10647;51.016;3.720;2023-04-24T09:54:19;11.23;;;4.30;;
20976;SDS011;10647;51.016;3.720;2023-04-24T09:56:43;7.07;;;4.20;;
20976;SDS011;10647;51.016;3.720;2023-04-24T09:59:12;7.33;;;3.10;;
20976;SDS011;10647;51.016;3.720;2023-04-24T10:01:41;9.97;;;4.43;;
20976;SDS011;10647;51.016;3.720;2023-04-24T10:04:20;12.93;;;4.60;;
20976;SDS011;10647;51.016;3.720;2023-04-24T10:06:49;10.87;;;4.40;;
20976;SDS011;10647;51.016;3.720;2023-04-24T10:12:05;9.63;;;3.57;;
20976;SDS011;10647;51.016;3.720;2023-04-24T10:14:33;7.33;;;3.77;;
20976;SDS011;10647;51.016;3.720;2023-04-24T10:17:03;12.93;;;4.00;;
20976;SDS011;10647;51.016;3.720;2023-04-24T10:19:32;7.40;;;3.70;;
20976;SDS011;10647;51.016;3.720;2023-04-24T10:22:03;8.30;;;3.27;;
20976;SDS011;10647;51.016;3.720;2023-04-24T10:24:31;8.53;;;2.83;;
20976;SDS011;10647;51.016;3.720;2023-04-24T10:27:03;10.10;;;4.63;;
20976;SDS011;10647;51.016;3.720;2023-04-24T10:29:34;12.87;;;4.37;;
20976;SDS011;10647;51.016;3.720;2023-04-24T10:32:06;12.33;;;4.40;;
20976;SDS011;10647;51.016;3.720;2023-04-24T10:34:36;6.80;;;3.13;;
20976;SDS011;10647;51.016;3.720;2023-04-24T10:37:04;10.40;;;4.30;;
20976;SDS011;10647;51.016;3.720;2023-04-24T10:39:31;11.70;;;5.00;;
20976;SDS011;10647;51.016;3.720;2023-04-24T10:42:00;8.27;;;3.67;;
20976;SDS011;10647;51.016;3.720;2023-04-24T10:44:35;7.97;;;3.77;;
20976;SDS011;10647;51.016;3.720;2023-04-24T10:47:03;10.40;;;4.00;;
20976;SDS011;10647;51.016;3.720;2023-04-24T10:49:31;7.93;;;4.13;;
20976;SDS011;10647;51.016;3.720;2023-04-24T10:52:02;5.47;;;3.00;;
20976;SDS011;10647;51.016;3.720;2023-04-24T10:54:34;7.67;;;2.53;;
20976;SDS011;10647;51.016;3.720;2023-04-24T11:00:16;10.80;;;4.73;;
20976;SDS011;10647;51.016;3.720;2023-04-24T11:02:48;8.20;;;4.20;;
20976;SDS011;10647;51.016;3.720;2023-04-24T11:05:18;7.00;;;3.67;;
20976;SDS011;10647;51.016;3.720;2023-04-24T11:10:45;10.63;;;4.70;;
20976;SDS011;10647;51.016;3.720;2023-04-24T11:14:01;9.73;;;4.77;;
20976;SDS011;10647;51.016;3.720;2023-04-24T11:16:28;8.60;;;4.07;;
20976;SDS011;10647;51.016;3.720;2023-04-24T11:19:17;8.95;;;3.40;;
20976;SDS011;10647;51.016;3.720;2023-04-24T11:21:47;9.80;;;4.00;;
20976;SDS011;10647;51.016;3.720;2023-04-24T11:27:21;9.40;;;3.98;;
20976;SDS011;10647;51.016;3.720;2023-04-24T11:32:27;10.60;;;3.80;;
20976;SDS011;10647;51.016;3.720;2023-04-24T11:35:16;9.30;;;3.50;;
20976;SDS011;10647;51.016;3.720;2023-04-24T11:37:48;11.47;;;3.50;;
20976;SDS011;10647;51.016;3.720;2023-04-24T11:40:18;4.50;;;1.98;;
20976;SDS011;10647;51.016;3.720;2023-04-24T11:42:49;10.87;;;3.37;;
20976;SDS011;10647;51.016;3.720;2023-04-24T11:45:18;10.17;;;3.10;;
20976;SDS011;10647;51.016;3.720;2023-04-24T11:47:50;7.10;;;3.27;;
20976;SDS011;10647;51.016;3.720;2023-04-24T11:50:18;7.13;;;2.80;;
20976;SDS011;10647;51.016;3.720;2023-04-24T11:52:48;7.08;;;2.87;;
20976;SDS011;10647;51.016;3.720;2023-04-24T11:57:53;7.58;;;3.08;;
20976;SDS011;10647;51.016;3.720;2023-04-24T12:00:24;11.27;;;3.00;;
20976;SDS011;10647;51.016;3.720;2023-04-24T12:03:03;5.70;;;2.57;;
20976;SDS011;10647;51.016;3.720;2023-04-24T12:06:10;4.65;;;2.42;;
20976;SDS011;10647;51.016;3.720;2023-04-24T12:08:34;6.20;;;2.37;;
20976;SDS011;10647;51.016;3.720;2023-04-24T12:11:02;8.75;;;3.15;;
20976;SDS011;10647;51.016;3.720;2023-04-24T12:13:33;5.58;;;2.12;;
20976;SDS011;10647;51.016;3.720;2023-04-24T12:16:05;7.70;;;2.08;;
20976;SDS011;10647;51.016;3.720;2023-04-24T12:18:34;4.28;;;1.85;;
20976;SDS011;10647;51.016;3.720;2023-04-24T12:21:20;8.13;;;2.23;;
20976;SDS011;10647;51.016;3.720;2023-04-24T12:23:54;9.05;;;2.35;;
20976;SDS011;10647;51.016;3.720;2023-04-24T12:28:54;6.63;;;2.30;;
20976;SDS011;10647;51.016;3.720;2023-04-24T12:31:24;5.53;;;1.77;;
20976;SDS011;10647;51.016;3.720;2023-04-24T12:33:52;4.67;;;1.75;;
20976;SDS011;10647;51.016;3.720;2023-04-24T12:36:21;6.85;;;1.98;;
20976;SDS011;10647;51.016;3.720;2023-04-24T12:38:52;4.40;;;1.40;;
20976;SDS011;10647;51.016;3.720;2023-04-24T12:41:20;6.40;;;1.67;;
20976;SDS011;10647;51.016;3.720;2023-04-24T12:43:56;5.62;;;1.60;;
20976;SDS011;10647;51.016;3.720;2023-04-24T12:46:22;3.55;;;1.37;;
20976;SDS011;10647;51.016;3.720;2023-04-24T12:48:49;10.40;;;1.70;;
20976;SDS011;10647;51.016;3.720;2023-04-24T12:51:17;6.62;;;1.65;;
20976;SDS011;10647;51.016;3.720;2023-04-24T12:53:45;8.25;;;1.67;;
20976;SDS011;10647;51.016;3.720;2023-04-24T12:56:12;6.20;;;1.87;;
20976;SDS011;10647;51.016;3.720;2023-04-24T12:58:43;5.58;;;1.55;;
20976;SDS011;10647;51.016;3.720;2023-04-24T13:01:10;6.55;;;1.90;;
20976;SDS011;10647;51.016;3.720;2023-04-24T13:03:40;4.15;;;1.40;;
20976;SDS011;10647;51.016;3.720;2023-04-24T13:06:08;8.70;;;1.57;;
20976;SDS011;10647;51.016;3.720;2023-04-24T13:08:35;3.10;;;1.35;;
20976;SDS011;10647;51.016;3.720;2023-04-24T13:11:03;6.70;;;1.75;;
20976;SDS011;10647;51.016;3.720;2023-04-24T13:16:01;5.05;;;1.45;;
20976;SDS011;10647;51.016;3.720;2023-04-24T13:18:28;2.58;;;1.12;;
20976;SDS011;10647;51.016;3.720;2023-04-24T13:20:57;4.70;;;1.35;;
20976;SDS011;10647;51.016;3.720;2023-04-24T13:23:26;3.67;;;1.10;;
20976;SDS011;10647;51.016;3.720;2023-04-24T13:25:53;5.35;;;1.52;;
20976;SDS011;10647;51.016;3.720;2023-04-24T13:28:23;2.90;;;1.15;;
20976;SDS011;10647;51.016;3.720;2023-04-24T13:30:51;3.52;;;1.42;;
20976;SDS011;10647;51.016;3.720;2023-04-24T13:33:18;6.65;;;1.30;;
20976;SDS011;10647;51.016;3.720;2023-04-24T13:35:46;3.00;;;0.95;;
20976;SDS011;10647;51.016;3.720;2023-04-24T13:38:14;7.17;;;1.10;;
20976;SDS011;10647;51.016;3.720;2023-04-24T13:40:42;3.45;;;0.88;;
20976;SDS011;10647;51.016;3.720;2023-04-24T13:43:15;2.83;;;1.10;;
20976;SDS011;10647;51.016;3.720;2023-04-24T13:45:42;7.08;;;1.30;;
20976;SDS011;10647;51.016;3.720;2023-04-24T13:48:10;4.28;;;1.10;;
20976;SDS011;10647;51.016;3.720;2023-04-24T13:50:39;2.70;;;1.17;;
20976;SDS011;10647;51.016;3.720;2023-04-24T13:53:07;8.30;;;1.35;;
20976;SDS011;10647;51.016;3.720;2023-04-24T13:55:35;3.50;;;1.20;;
20976;SDS011;10647;51.016;3.720;2023-04-24T13:58:05;4.53;;;1.20;;
20976;SDS011;10647;51.016;3.720;2023-04-24T14:00:33;2.52;;;0.90;;
20976;SDS011;10647;51.016;3.720;2023-04-24T14:03:02;3.52;;;0.80;;
20976;SDS011;10647;51.016;3.720;2023-04-24T14:05:29;2.47;;;0.80;;
20976;SDS011;10647;51.016;3.720;2023-04-24T14:07:57;6.72;;;2.42;;
20976;SDS011;10647;51.016;3.720;2023-04-24T14:10:25;44.25;;;3.27;;
20976;SDS011;10647;51.016;3.720;2023-04-24T14:12:53;3.30;;;0.90;;
20976;SDS011;10647;51.016;3.720;2023-04-24T14:15:21;4.15;;;0.88;;
20976;SDS011;10647;51.016;3.720;2023-04-24T14:17:49;5.50;;;1.15;;
20976;SDS011;10647;51.016;3.720;2023-04-24T14:20:17;2.37;;;0.80;;
20976;SDS011;10647;51.016;3.720;2023-04-24T14:22:45;3.60;;;0.85;;
20976;SDS011;10647;51.016;3.720;2023-04-24T14:25:12;4.03;;;0.78;;
20976;SDS011;10647;51.016;3.720;2023-04-24T14:27:41;3.75;;;0.47;;
20976;SDS011;10647;51.016;3.720;2023-04-24T14:30:09;1.95;;;0.80;;
20976;SDS011;10647;51.016;3.720;2023-04-24T14:32:38;1.67;;;0.80;;
20976;SDS011;10647;51.016;3.720;2023-04-24T14:35:06;6.05;;;0.93;;
20976;SDS011;10647;51.016;3.720;2023-04-24T14:37:34;4.12;;;1.20;;
20976;SDS011;10647;51.016;3.720;2023-04-24T14:40:02;4.50;;;0.82;;
20976;SDS011;10647;51.016;3.720;2023-04-24T14:42:32;2.50;;;0.85;;
20976;SDS011;10647;51.016;3.720;2023-04-24T14:45:02;1.82;;;0.80;;
20976;SDS011;10647;51.016;3.720;2023-04-24T14:47:32;3.62;;;0.80;;
20976;SDS011;10647;51.016;3.720;2023-04-24T14:49:59;7.80;;;1.17;;
20976;SDS011;10647;51.016;3.720;2023-04-24T14:52:27;4.85;;;0.90;;
20976;SDS011;10647;51.016;3.720;2023-04-24T14:57:25;3.35;;;0.75;;
20976;SDS011;10647;51.016;3.720;2023-04-24T14:59:52;5.35;;;0.95;;
20976;SDS011;10647;51.016;3.720;2023-04-24T15:02:22;4.83;;;1.35;;
20976;SDS011;10647;51.016;3.720;2023-04-24T15:04:49;3.58;;;1.00;;
20976;SDS011;10647;51.016;3.720;2023-04-24T15:07:17;3.20;;;1.40;;
20976;SDS011;10647;51.016;3.720;2023-04-24T15:09:44;3.08;;;1.40;;
20976;SDS011;10647;51.016;3.720;2023-04-24T15:12:15;7.60;;;1.50;;
20976;SDS011;10647;51.016;3.720;2023-04-24T15:14:42;3.30;;;1.60;;
20976;SDS011;10647;51.016;3.720;2023-04-24T15:17:11;3.02;;;1.32;;
20976;SDS011;10647;51.016;3.720;2023-04-24T15:19:39;4.55;;;1.70;;
20976;SDS011;10647;51.016;3.720;2023-04-24T15:22:06;2.50;;;1.30;;
20976;SDS011;10647;51.016;3.720;2023-04-24T15:24:34;3.85;;;1.50;;
20976;SDS011;10647;51.016;3.720;2023-04-24T15:27:01;4.70;;;1.22;;
20976;SDS011;10647;51.016;3.720;2023-04-24T15:29:29;4.33;;;1.30;;